createdAt,value
2023-03-06T00:01:05.692Z,5.90
2023-03-06T00:03:36.234Z,5.10
2023-03-06T00:06:06.217Z,5.10
2023-03-06T00:08:36.575Z,5.50
2023-03-06T00:11:06.164Z,4.80
2023-03-06T00:13:35.927Z,5.70
2023-03-06T00:16:07.547Z,6.10
2023-03-06T00:18:37.517Z,5.10
2023-03-06T00:21:09.181Z,5.90
2023-03-06T00:23:38.316Z,5.40
2023-03-06T00:26:09.617Z,5.90
2023-03-06T00:28:45.368Z,5.70
2023-03-06T00:31:15.897Z,5.50
2023-03-06T00:33:45.967Z,5.50
2023-03-06T00:36:15.666Z,6.10
2023-03-06T00:38:44.809Z,5.50
2023-03-06T00:41:14.368Z,6.20
2023-03-06T00:43:43.495Z,4.00
2023-03-06T00:46:13.629Z,5.20
2023-03-06T00:48:44.540Z,3.80
2023-03-06T00:51:14.728Z,4.00
2023-03-06T00:53:46.774Z,4.00
2023-03-06T00:56:18.923Z,4.40
2023-03-06T00:58:50.215Z,4.60
2023-03-06T01:01:20.832Z,5.30
2023-03-06T01:03:49.883Z,4.90
2023-03-06T01:06:20.201Z,4.90
2023-03-06T01:08:50.225Z,4.70
2023-03-06T01:11:21.591Z,3.90
2023-03-06T01:13:52.280Z,3.60
2023-03-06T01:16:23.625Z,4.20
2023-03-06T01:18:52.792Z,3.80
2023-03-06T01:21:22.457Z,4.00
2023-03-06T01:23:52.818Z,3.70
2023-03-06T01:26:21.974Z,3.90
2023-03-06T01:28:52.162Z,3.70
2023-03-06T01:31:21.998Z,4.20
2023-03-06T01:33:51.149Z,3.90
2023-03-06T01:36:20.550Z,4.30
2023-03-06T01:38:50.098Z,3.60
2023-03-06T01:41:21.525Z,3.70
2023-03-06T01:43:51.296Z,3.90
2023-03-06T01:46:42.711Z,3.50
2023-03-06T01:49:31.155Z,3.80
2023-03-06T01:52:15.031Z,3.50
2023-03-06T01:55:00.187Z,3.40
2023-03-06T01:57:41.756Z,3.70
2023-03-06T02:00:16.938Z,3.30
2023-03-06T02:02:53.266Z,3.40
2023-03-06T02:05:24.066Z,3.90
2023-03-06T02:07:55.068Z,4.00
2023-03-06T02:10:25.773Z,3.80
2023-03-06T02:12:55.028Z,3.80
2023-03-06T02:15:28.018Z,3.80
2023-03-06T02:18:00.628Z,3.70
2023-03-06T02:20:37.736Z,4.00
2023-03-06T02:23:17.428Z,4.10
2023-03-06T02:25:50.376Z,3.00
2023-03-06T02:28:24.299Z,3.80
2023-03-06T02:30:57.153Z,3.80
2023-03-06T02:33:29.790Z,3.40
2023-03-06T02:38:41.307Z,3.10
2023-03-06T02:41:10.887Z,3.20
2023-03-06T02:43:45.650Z,3.50
2023-03-06T02:46:16.184Z,4.00
2023-03-06T02:48:46.395Z,3.40
2023-03-06T02:51:15.724Z,3.70
2023-03-06T02:53:45.974Z,3.10
2023-03-06T02:56:16.573Z,3.70
2023-03-06T02:58:46.935Z,3.40
2023-03-06T03:01:16.762Z,3.50
2023-03-06T03:03:45.878Z,3.40
2023-03-06T03:06:17.054Z,3.90
2023-03-06T03:08:49.032Z,4.00
2023-03-06T03:11:18.777Z,3.70
2023-03-06T03:13:48.839Z,4.70
2023-03-06T03:16:24.202Z,4.10
2023-03-06T03:18:53.294Z,3.80
2023-03-06T03:21:24.909Z,4.80
2023-03-06T03:23:56.523Z,4.50
2023-03-06T03:26:27.544Z,4.20
2023-03-06T03:29:14.003Z,4.20
2023-03-06T03:31:43.510Z,4.50
2023-03-06T03:34:13.044Z,4.50
2023-03-06T03:36:43.954Z,4.20
2023-03-06T03:39:14.763Z,3.70
2023-03-06T03:41:44.739Z,3.50
2023-03-06T03:44:14.651Z,3.90
2023-03-06T03:46:45.230Z,3.80
2023-03-06T03:49:19.398Z,4.50
2023-03-06T03:51:49.735Z,3.80
2023-03-06T03:54:21.733Z,4.40
2023-03-06T03:56:52.088Z,4.10
2023-03-06T03:59:26.863Z,4.00
2023-03-06T04:02:17.594Z,3.90
2023-03-06T04:04:54.195Z,4.20
2023-03-06T04:07:23.483Z,3.90
2023-03-06T04:09:56.017Z,4.50
2023-03-06T04:12:26.238Z,3.30
2023-03-06T04:14:55.748Z,6.60
2023-03-06T04:17:24.902Z,7.20
2023-03-06T04:19:56.173Z,7.00
2023-03-06T04:22:25.872Z,7.00
2023-03-06T04:24:56.656Z,5.00
2023-03-06T04:30:00.359Z,3.00
2023-03-06T04:32:29.798Z,4.30
2023-03-06T04:34:59.530Z,4.00
2023-03-06T04:37:31.479Z,4.20
2023-03-06T04:40:01.742Z,5.70
2023-03-06T04:42:32.167Z,6.10
2023-03-06T04:45:02.495Z,6.30
2023-03-06T04:47:33.306Z,5.50
2023-03-06T04:50:30.577Z,5.70
2023-03-06T04:52:57.697Z,5.20
2023-03-06T04:55:31.016Z,4.50
2023-03-06T04:58:00.884Z,4.90
2023-03-06T05:00:33.772Z,5.30
2023-03-06T05:03:03.960Z,5.00
2023-03-06T05:05:34.085Z,5.30
2023-03-06T05:08:04.012Z,5.10
2023-03-06T05:10:34.005Z,5.80
2023-03-06T05:13:03.585Z,7.30
2023-03-06T05:15:32.742Z,5.50
2023-03-06T05:18:02.508Z,4.70
2023-03-06T05:20:32.572Z,4.40
2023-03-06T05:23:01.783Z,5.40
2023-03-06T05:25:30.939Z,5.50
2023-03-06T05:28:00.099Z,5.20
2023-03-06T05:30:29.881Z,5.60
2023-03-06T05:33:02.180Z,4.60
2023-03-06T05:35:32.207Z,5.80
2023-03-06T05:38:02.186Z,5.10
2023-03-06T05:40:31.618Z,5.70
2023-03-06T05:43:01.694Z,4.80
2023-03-06T05:45:32.510Z,4.90
2023-03-06T05:48:01.853Z,5.50
2023-03-06T05:50:32.524Z,5.20
2023-03-06T05:53:01.948Z,4.80
2023-03-06T05:55:31.851Z,6.40
2023-03-06T05:58:00.922Z,6.00
2023-03-06T06:00:30.249Z,6.30
2023-03-06T06:03:02.712Z,7.40
2023-03-06T06:08:01.399Z,5.30
2023-03-06T06:10:30.589Z,5.80
2023-03-06T06:12:59.591Z,5.60
2023-03-06T06:15:29.352Z,6.00
2023-03-06T06:17:59.034Z,7.00
2023-03-06T06:20:29.321Z,7.00
2023-03-06T06:22:59.371Z,7.40
2023-03-06T06:25:28.374Z,8.90
2023-03-06T06:27:58.400Z,7.80
2023-03-06T06:30:27.551Z,8.20
2023-03-06T06:32:57.441Z,8.90
2023-03-06T06:35:27.700Z,6.90
2023-03-06T06:37:56.828Z,8.70
2023-03-06T06:40:28.186Z,10.30
2023-03-06T06:42:58.023Z,7.90
2023-03-06T06:45:27.586Z,8.70
2023-03-06T06:47:57.901Z,8.60
2023-03-06T06:50:27.767Z,8.20
2023-03-06T06:52:57.029Z,9.30
2023-03-06T06:55:27.576Z,8.40
2023-03-06T06:57:56.687Z,8.20
2023-03-06T07:00:26.842Z,7.70
2023-03-06T07:02:56.484Z,8.00
2023-03-06T07:05:26.745Z,8.70
2023-03-06T07:07:56.355Z,9.30
2023-03-06T07:10:28.698Z,9.80
2023-03-06T07:12:58.497Z,9.00
2023-03-06T07:15:30.226Z,9.80
2023-03-06T07:18:01.740Z,7.60
2023-03-06T07:20:32.298Z,7.90
2023-03-06T07:23:02.464Z,7.80
2023-03-06T07:25:33.157Z,7.10
2023-03-06T07:28:03.610Z,7.30
2023-03-06T07:30:32.953Z,7.40
2023-03-06T07:33:02.204Z,8.00
2023-03-06T07:35:31.870Z,6.80
2023-03-06T07:38:02.192Z,5.40
2023-03-06T07:40:31.545Z,6.40
2023-03-06T07:43:16.815Z,6.70
2023-03-06T07:46:00.699Z,6.60
2023-03-06T07:48:31.778Z,5.50
2023-03-06T07:51:04.793Z,5.50
2023-03-06T07:53:37.361Z,5.10
2023-03-06T07:56:11.650Z,5.40
2023-03-06T07:58:44.408Z,5.00
2023-03-06T08:01:16.966Z,5.80
2023-03-06T08:03:47.708Z,5.40
2023-03-06T08:06:30.195Z,6.10
2023-03-06T08:09:00.118Z,5.70
2023-03-06T08:11:31.307Z,6.10
2023-03-06T08:14:01.641Z,7.50
2023-03-06T08:16:32.288Z,7.60
2023-03-06T08:19:04.497Z,7.20
2023-03-06T08:21:33.926Z,8.40
2023-03-06T08:24:03.987Z,8.20
2023-03-06T08:26:33.733Z,7.70
2023-03-06T08:29:03.328Z,8.00
2023-03-06T08:31:45.248Z,7.70
2023-03-06T08:34:20.335Z,7.90
2023-03-06T08:36:51.144Z,6.50
2023-03-06T08:39:21.745Z,7.70
2023-03-06T08:41:51.804Z,6.50
2023-03-06T08:44:21.474Z,6.70
2023-03-06T08:46:53.642Z,7.70
2023-03-06T08:49:23.681Z,7.20
2023-03-06T08:51:55.279Z,6.80
2023-03-06T08:54:25.221Z,6.10
2023-03-06T08:56:55.281Z,6.60
2023-03-06T08:59:28.277Z,5.90
2023-03-06T09:01:57.410Z,6.20
2023-03-06T09:04:31.750Z,7.30
2023-03-06T09:07:01.746Z,5.70
2023-03-06T09:09:31.419Z,5.40
2023-03-06T09:12:01.029Z,5.80
2023-03-06T09:14:33.107Z,5.50
2023-03-06T09:17:02.753Z,5.20
2023-03-06T09:19:31.917Z,5.90
2023-03-06T09:22:01.656Z,6.00
2023-03-06T09:24:31.428Z,5.60
2023-03-06T09:27:03.144Z,5.20
2023-03-06T09:29:33.221Z,5.10
2023-03-06T09:32:02.531Z,5.10
2023-03-06T09:34:32.332Z,5.00
2023-03-06T09:37:05.237Z,5.00
2023-03-06T09:39:35.292Z,5.50
2023-03-06T09:42:08.477Z,5.00
2023-03-06T09:44:41.531Z,5.10
2023-03-06T09:47:40.068Z,4.30
2023-03-06T09:50:27.706Z,4.70
2023-03-06T09:53:04.797Z,5.20
2023-03-06T09:55:38.646Z,5.70
2023-03-06T09:58:26.333Z,5.00
2023-03-06T10:01:17.660Z,5.00
2023-03-06T10:03:59.101Z,5.00
2023-03-06T10:06:40.497Z,4.70
2023-03-06T10:09:34.405Z,5.00
2023-03-06T10:12:14.423Z,4.10
2023-03-06T10:14:49.243Z,4.20
2023-03-06T10:17:23.166Z,4.60
2023-03-06T10:19:53.252Z,5.00
2023-03-06T10:22:40.291Z,4.60
2023-03-06T10:25:31.426Z,4.20
2023-03-06T10:28:12.096Z,5.10
2023-03-06T10:30:43.270Z,4.80
2023-03-06T10:33:39.564Z,4.80
2023-03-06T10:36:18.465Z,4.30
2023-03-06T10:38:49.221Z,4.80
2023-03-06T10:41:25.618Z,4.50
2023-03-06T10:44:00.800Z,4.00
2023-03-06T10:46:36.975Z,4.10
2023-03-06T10:49:23.125Z,3.50
2023-03-06T10:52:14.614Z,4.60
2023-03-06T10:54:45.249Z,4.90
2023-03-06T10:57:30.513Z,4.30
2023-03-06T11:00:17.679Z,3.90
2023-03-06T11:03:04.817Z,4.70
2023-03-06T11:05:34.968Z,4.10
2023-03-06T11:08:04.379Z,3.80
2023-03-06T11:10:35.883Z,3.50
2023-03-06T11:13:22.850Z,4.60
2023-03-06T11:16:03.711Z,4.60
2023-03-06T11:18:43.406Z,3.80
2023-03-06T11:21:36.292Z,3.50
2023-03-06T11:24:20.455Z,5.50
2023-03-06T11:27:03.895Z,3.90
2023-03-06T11:29:44.920Z,3.80
2023-03-06T11:32:23.199Z,3.80
2023-03-06T11:34:59.553Z,4.30
2023-03-06T11:37:47.852Z,3.60
2023-03-06T11:40:23.666Z,4.10
2023-03-06T11:43:30.674Z,3.70
2023-03-06T11:46:23.336Z,3.80
2023-03-06T11:49:19.050Z,4.10
2023-03-06T11:51:55.873Z,3.70
2023-03-06T11:54:25.436Z,4.30
2023-03-06T11:57:05.679Z,3.70
2023-03-06T12:00:18.864Z,4.50
2023-03-06T12:03:20.706Z,4.10
2023-03-06T12:06:01.957Z,3.70
2023-03-06T12:08:31.884Z,4.40
2023-03-06T12:11:21.548Z,4.30
2023-03-06T12:14:16.498Z,4.70
2023-03-06T12:17:07.373Z,3.70
2023-03-06T12:20:05.480Z,4.00
2023-03-06T12:22:58.227Z,4.80
2023-03-06T12:25:40.685Z,4.20
2023-03-06T12:28:38.127Z,4.50
2023-03-06T12:31:19.874Z,4.40
2023-03-06T12:34:23.741Z,4.00
2023-03-06T12:37:12.924Z,4.40
2023-03-06T12:39:58.506Z,4.00
2023-03-06T12:43:06.584Z,4.50
2023-03-06T12:49:02.794Z,4.60
2023-03-06T12:51:33.540Z,4.10
2023-03-06T12:54:04.954Z,4.40
2023-03-06T12:56:36.604Z,4.00
2023-03-06T12:59:06.376Z,4.20
2023-03-06T13:01:58.233Z,4.20
2023-03-06T13:04:51.770Z,4.30
2023-03-06T13:07:33.611Z,4.20
2023-03-06T13:10:06.445Z,4.10
2023-03-06T13:13:01.139Z,4.30
2023-03-06T13:16:05.428Z,4.30
2023-03-06T13:18:35.483Z,4.30
2023-03-06T13:21:05.534Z,5.20
2023-03-06T13:23:39.325Z,4.80
2023-03-06T13:26:10.973Z,4.50
2023-03-06T13:28:46.719Z,4.50
2023-03-06T13:31:40.591Z,4.40
2023-03-06T13:34:32.060Z,4.50
2023-03-06T13:37:24.006Z,5.00
2023-03-06T13:39:53.055Z,4.10
2023-03-06T13:42:40.256Z,4.10
2023-03-06T13:45:19.779Z,4.50
2023-03-06T13:48:21.124Z,4.30
2023-03-06T13:50:50.852Z,4.30
2023-03-06T13:53:53.773Z,4.10
2023-03-06T13:56:38.377Z,3.80
2023-03-06T13:59:14.224Z,4.00
2023-03-06T14:01:53.873Z,4.00
2023-03-06T14:04:55.452Z,3.90
2023-03-06T14:07:44.205Z,3.90
2023-03-06T14:10:20.639Z,4.10
2023-03-06T14:12:49.776Z,4.70
2023-03-06T14:15:24.865Z,4.50
2023-03-06T14:18:08.297Z,4.10
2023-03-06T14:20:45.150Z,4.80
2023-03-06T14:23:21.583Z,4.00
2023-03-06T14:26:23.820Z,4.20
2023-03-06T14:28:52.969Z,4.70
2023-03-06T14:31:38.801Z,4.50
2023-03-06T14:34:17.303Z,5.00
2023-03-06T14:36:49.139Z,4.50
2023-03-06T14:44:22.336Z,4.20
2023-03-06T14:46:55.695Z,4.40
2023-03-06T14:49:27.014Z,4.70
2023-03-06T14:52:02.311Z,5.00
2023-03-06T14:54:39.773Z,5.80
2023-03-06T14:57:15.817Z,5.40
2023-03-06T14:59:55.366Z,4.90
2023-03-06T15:02:33.203Z,5.40
2023-03-06T15:05:14.003Z,6.20
2023-03-06T15:07:45.194Z,5.20
2023-03-06T15:10:27.304Z,4.90
2023-03-06T15:13:23.076Z,5.50
2023-03-06T15:16:05.667Z,6.00
2023-03-06T15:18:39.526Z,4.70
2023-03-06T15:21:21.994Z,5.60
2023-03-06T15:23:57.315Z,6.80
2023-03-06T15:26:37.242Z,6.80
2023-03-06T15:29:11.049Z,6.40
2023-03-06T15:31:46.619Z,7.10
2023-03-06T15:34:23.909Z,7.00
2023-03-06T15:36:58.223Z,6.20
2023-03-06T15:39:42.105Z,5.90
2023-03-06T15:42:37.531Z,6.50
2023-03-06T15:45:20.013Z,6.80
2023-03-06T15:47:52.445Z,5.50
2023-03-06T15:52:53.216Z,7.00
2023-03-06T15:55:34.413Z,7.70
2023-03-06T15:58:05.137Z,6.60
2023-03-06T16:00:38.790Z,7.30
2023-03-06T16:03:11.577Z,8.10
2023-03-06T16:05:41.464Z,7.60
2023-03-06T16:08:16.084Z,8.20
2023-03-06T16:10:47.294Z,7.80
2023-03-06T16:13:23.155Z,8.40
2023-03-06T16:15:53.414Z,8.80
2023-03-06T16:18:23.018Z,9.00
2023-03-06T16:20:52.269Z,8.50
2023-03-06T16:23:22.504Z,12.00
2023-03-06T16:25:53.199Z,8.70
2023-03-06T16:28:22.525Z,8.70
2023-03-06T16:30:52.948Z,9.30
2023-03-06T16:33:22.506Z,9.50
2023-03-06T16:35:51.977Z,10.40
2023-03-06T16:38:21.792Z,8.50
2023-03-06T16:40:51.087Z,8.10
2023-03-06T16:43:20.322Z,8.60
2023-03-06T16:45:49.534Z,9.40
2023-03-06T16:48:18.877Z,9.80
2023-03-06T16:50:49.460Z,8.50
2023-03-06T16:53:20.935Z,8.70
2023-03-06T16:55:50.972Z,9.20
2023-03-06T16:58:21.912Z,8.60
2023-03-06T17:00:51.237Z,9.80
2023-03-06T17:03:21.023Z,8.40
2023-03-06T17:05:51.144Z,9.10
2023-03-06T17:08:20.906Z,8.10
2023-03-06T17:10:51.178Z,8.40
2023-03-06T17:13:20.797Z,8.60
2023-03-06T17:15:57.424Z,7.70
2023-03-06T17:18:28.419Z,9.30
2023-03-06T17:21:02.677Z,7.50
2023-03-06T17:23:32.442Z,8.20
2023-03-06T17:26:09.226Z,8.10
2023-03-06T17:28:39.995Z,7.90
2023-03-06T17:31:27.261Z,8.30
2023-03-06T17:34:01.016Z,8.40
2023-03-06T17:36:34.518Z,8.10
2023-03-06T17:39:26.681Z,8.50
2023-03-06T17:42:12.603Z,8.80
2023-03-06T17:44:45.114Z,8.90
2023-03-06T17:47:36.248Z,8.90
2023-03-06T17:50:06.270Z,9.40
2023-03-06T17:52:58.543Z,10.00
2023-03-06T17:55:39.516Z,9.90
2023-03-06T17:58:18.280Z,10.10
2023-03-06T18:00:47.614Z,9.80
2023-03-06T18:03:17.208Z,9.90
2023-03-06T18:06:08.673Z,11.20
2023-03-06T18:08:41.549Z,9.60
2023-03-06T18:11:12.171Z,9.30
2023-03-06T18:13:44.848Z,9.80
2023-03-06T18:16:17.739Z,9.80
2023-03-06T18:18:48.158Z,12.00
2023-03-06T18:21:18.233Z,11.90
2023-03-06T18:23:47.681Z,11.10
2023-03-06T18:26:19.331Z,12.40
2023-03-06T18:28:52.782Z,11.90
2023-03-06T18:31:29.296Z,11.80
2023-03-06T18:34:01.003Z,12.40
2023-03-06T18:36:33.547Z,10.70
2023-03-06T18:39:07.658Z,11.70
2023-03-06T18:41:38.603Z,10.20
2023-03-06T18:44:13.826Z,11.70
2023-03-06T18:46:44.119Z,10.10
2023-03-06T18:49:15.732Z,13.10
2023-03-06T18:54:17.106Z,11.00
2023-03-06T18:56:46.769Z,13.70
2023-03-06T18:59:18.942Z,13.10
2023-03-06T19:01:49.101Z,12.40
2023-03-06T19:04:19.839Z,12.50
2023-03-06T19:06:48.821Z,13.00
2023-03-06T19:09:19.096Z,13.90
2023-03-06T19:11:49.532Z,13.10
2023-03-06T19:14:25.905Z,13.50
2023-03-06T19:16:55.457Z,13.60
2023-03-06T19:19:29.763Z,12.80
2023-03-06T19:21:59.492Z,12.80
2023-03-06T19:24:29.966Z,11.40
2023-03-06T19:26:59.240Z,12.70
2023-03-06T19:29:31.250Z,13.10
2023-03-06T19:32:01.558Z,11.90
2023-03-06T19:34:32.088Z,13.70
2023-03-06T19:37:02.580Z,12.90
2023-03-06T19:39:35.954Z,14.40
2023-03-06T19:42:07.346Z,14.40
2023-03-06T19:44:41.361Z,15.00
2023-03-06T19:50:15.433Z,15.60
2023-03-06T19:52:45.467Z,18.10
2023-03-06T19:55:15.165Z,17.10
2023-03-06T19:57:46.143Z,17.90
2023-03-06T20:00:16.572Z,18.80
2023-03-06T20:02:45.881Z,19.20
2023-03-06T20:05:16.788Z,19.70
2023-03-06T20:07:46.904Z,20.80
2023-03-06T20:10:17.522Z,19.70
2023-03-06T20:12:50.997Z,20.60
2023-03-06T20:15:22.757Z,20.30
2023-03-06T20:17:52.698Z,23.30
2023-03-06T20:20:22.850Z,22.70
2023-03-06T20:22:52.918Z,24.00
2023-03-06T20:25:25.311Z,20.60
2023-03-06T20:30:24.314Z,20.20
2023-03-06T20:32:58.969Z,22.10
2023-03-06T20:35:28.355Z,19.30
2023-03-06T20:37:58.521Z,19.30
2023-03-06T20:40:31.433Z,16.70
2023-03-06T20:43:00.983Z,15.50
2023-03-06T20:45:31.081Z,19.20
2023-03-06T20:48:07.855Z,16.50
2023-03-06T20:50:37.671Z,13.30
2023-03-06T20:53:07.396Z,17.10
2023-03-06T20:55:40.067Z,15.30
2023-03-06T20:58:16.150Z,13.30
2023-03-06T21:00:46.857Z,13.80
2023-03-06T21:03:18.605Z,15.20
2023-03-06T21:05:54.530Z,17.40
2023-03-06T21:08:24.407Z,15.40
2023-03-06T21:10:55.388Z,16.70
2023-03-06T21:13:25.080Z,14.70
2023-03-06T21:15:54.850Z,17.40
2023-03-06T21:18:26.219Z,15.20
2023-03-06T21:21:06.425Z,15.20
2023-03-06T21:23:39.924Z,15.60
2023-03-06T21:26:13.437Z,14.60
2023-03-06T21:28:54.808Z,14.10
2023-03-06T21:31:24.383Z,15.00
2023-03-06T21:33:54.634Z,13.40
2023-03-06T21:36:27.565Z,16.40
2023-03-06T21:38:57.059Z,14.40
2023-03-06T21:41:29.166Z,13.90
2023-03-06T21:44:02.541Z,14.00
2023-03-06T21:46:33.120Z,16.10
2023-03-06T21:49:04.592Z,15.90
2023-03-06T21:51:34.708Z,15.20
2023-03-06T21:54:10.194Z,15.30
2023-03-06T21:56:41.959Z,14.30
2023-03-06T21:59:13.362Z,14.80
2023-03-06T22:01:43.735Z,14.90
2023-03-06T22:04:16.518Z,11.50
2023-03-06T22:06:48.667Z,15.50
2023-03-06T22:09:20.401Z,13.40
2023-03-06T22:11:50.430Z,15.00
2023-03-06T22:14:20.901Z,14.70
2023-03-06T22:16:51.779Z,14.30
2023-03-06T22:19:21.644Z,12.10
2023-03-06T22:21:51.607Z,13.90
2023-03-06T22:24:20.958Z,14.00
2023-03-06T22:26:51.035Z,15.50
2023-03-06T22:29:21.355Z,7.90
2023-03-06T22:31:52.555Z,11.80
2023-03-06T22:34:28.189Z,10.10
2023-03-06T22:37:00.362Z,5.80
2023-03-06T22:39:32.289Z,6.30
2023-03-06T22:42:01.433Z,11.40
2023-03-06T22:44:31.549Z,10.00
2023-03-06T22:47:03.142Z,8.40
2023-03-06T22:49:33.558Z,9.50
2023-03-06T22:52:03.672Z,10.00
2023-03-06T22:54:33.418Z,12.90
2023-03-06T22:57:05.068Z,12.50
2023-03-06T22:59:34.160Z,12.70
2023-03-06T23:02:04.301Z,12.60
2023-03-06T23:04:33.340Z,12.80
2023-03-06T23:07:02.519Z,14.60
2023-03-06T23:09:33.535Z,15.30
2023-03-06T23:12:21.894Z,16.40
2023-03-06T23:15:10.606Z,17.30
2023-03-06T23:18:00.104Z,17.70
2023-03-06T23:20:47.619Z,16.00
2023-03-06T23:23:37.888Z,18.10
2023-03-06T23:26:08.633Z,17.40
2023-03-06T23:28:38.176Z,18.10
2023-03-06T23:31:14.187Z,17.10
2023-03-06T23:33:45.352Z,17.50
2023-03-06T23:36:18.283Z,15.30
2023-03-06T23:38:49.195Z,14.30
2023-03-06T23:41:21.376Z,17.60
2023-03-06T23:43:54.932Z,12.60
2023-03-06T23:46:24.608Z,7.10
2023-03-06T23:48:55.459Z,6.40
2023-03-06T23:51:24.698Z,5.70
2023-03-06T23:53:57.347Z,5.20
2023-03-06T23:56:28.872Z,4.40
2023-03-06T23:58:59.504Z,6.00
